sensor_id;sensor_type;location;lat;lon;timestamp;pressure;altitude;pressure_sealevel;temperature;humidity
30302;BME280;17111;52.130;5.028;2023-05-22T00:01:37;101732.81;;;21.78;47.42
30302;BME280;17111;52.130;5.028;2023-05-22T00:04:04;101716.63;;;21.78;47.25
30302;BME280;17111;52.130;5.028;2023-05-22T00:06:31;101716.63;;;21.78;47.69
30302;BME280;17111;52.130;5.028;2023-05-22T00:08:59;101725.56;;;21.78;47.24
30302;BME280;17111;52.130;5.028;2023-05-22T00:11:26;101703.16;;;21.78;47.17
30302;BME280;17111;52.130;5.028;2023-05-22T00:13:52;101700.44;;;21.78;46.99
30302;BME280;17111;52.130;5.028;2023-05-22T00:16:19;101713.94;;;21.78;47.34
30302;BME280;17111;52.130;5.028;2023-05-22T00:18:46;101723.88;;;21.77;47.02
30302;BME280;17111;52.130;5.028;2023-05-22T00:21:13;101711.25;;;21.78;47.02
30302;BME280;17111;52.130;5.028;2023-05-22T00:23:39;101705.84;;;21.78;47.44
30302;BME280;17111;52.130;5.028;2023-05-22T00:26:06;101703.16;;;21.78;47.02
30302;BME280;17111;52.130;5.028;2023-05-22T00:28:33;101696.91;;;21.77;47.33
30302;BME280;17111;52.130;5.028;2023-05-22T00:30:59;101693.38;;;21.77;47.23
30302;BME280;17111;52.130;5.028;2023-05-22T00:33:26;101677.16;;;21.77;46.93
30302;BME280;17111;52.130;5.028;2023-05-22T00:35:53;101673.63;;;21.76;47.46
30302;BME280;17111;52.130;5.028;2023-05-22T00:38:30;101677.47;;;21.74;47.28
30302;BME280;17111;52.130;5.028;2023-05-22T00:41:02;101671.94;;;21.75;47.18
30302;BME280;17111;52.130;5.028;2023-05-22T00:43:30;101662.13;;;21.74;47.22
30302;BME280;17111;52.130;5.028;2023-05-22T00:45:57;101660.44;;;21.73;47.16
30302;BME280;17111;52.130;5.028;2023-05-22T00:48:24;101662.31;;;21.73;47.41
30302;BME280;17111;52.130;5.028;2023-05-22T00:50:53;101654.22;;;21.73;47.37
30302;BME280;17111;52.130;5.028;2023-05-22T00:53:20;101640.72;;;21.73;47.31
30302;BME280;17111;52.130;5.028;2023-05-22T00:55:48;101639.88;;;21.72;47.26
30302;BME280;17111;52.130;5.028;2023-05-22T00:58:17;101646.41;;;21.69;47.23
30302;BME280;17111;52.130;5.028;2023-05-22T01:00:44;101659.06;;;21.69;47.45
30302;BME280;17111;52.130;5.028;2023-05-22T01:03:12;101651.16;;;21.67;47.52
30302;BME280;17111;52.130;5.028;2023-05-22T01:05:40;101653.84;;;21.67;47.25
30302;BME280;17111;52.130;5.028;2023-05-22T01:08:08;101653.84;;;21.67;47.24
30302;BME280;17111;52.130;5.028;2023-05-22T01:10:35;101653.97;;;21.66;47.40
30302;BME280;17111;52.130;5.028;2023-05-22T01:15:55;101645.22;;;21.64;47.31
30302;BME280;17111;52.130;5.028;2023-05-22T01:18:30;101644.38;;;21.63;47.71
30302;BME280;17111;52.130;5.028;2023-05-22T01:21:20;101646.38;;;21.61;47.64
30302;BME280;17111;52.130;5.028;2023-05-22T01:23:59;101648.06;;;21.62;47.63
30302;BME280;17111;52.130;5.028;2023-05-22T01:29:41;101645.53;;;21.61;47.63
30302;BME280;17111;52.130;5.028;2023-05-22T01:32:09;101632.03;;;21.61;47.28
30302;BME280;17111;52.130;5.028;2023-05-22T01:34:39;101630.34;;;21.60;47.33
30302;BME280;17111;52.130;5.028;2023-05-22T01:37:08;101623.41;;;21.57;47.71
30302;BME280;17111;52.130;5.028;2023-05-22T01:39:36;101628.81;;;21.57;47.52
30302;BME280;17111;52.130;5.028;2023-05-22T01:42:04;101623.41;;;21.57;47.61
30302;BME280;17111;52.130;5.028;2023-05-22T01:44:31;101617.16;;;21.57;47.65
30302;BME280;17111;52.130;5.028;2023-05-22T01:46:57;101625.44;;;21.55;47.51
30302;BME280;17111;52.130;5.028;2023-05-22T01:49:33;101632.50;;;21.56;47.65
30302;BME280;17111;52.130;5.028;2023-05-22T01:59:53;101617.47;;;21.54;47.85
30302;BME280;17111;52.130;5.028;2023-05-22T02:02:22;101622.72;;;21.55;47.96
30302;BME280;17111;52.130;5.028;2023-05-22T02:04:59;101617.66;;;21.52;47.71
30302;BME280;17111;52.130;5.028;2023-05-22T02:07:27;101606.84;;;21.52;47.78
30302;BME280;17111;52.130;5.028;2023-05-22T02:09:56;101606.16;;;21.50;47.47
30302;BME280;17111;52.130;5.028;2023-05-22T02:12:23;101605.16;;;21.51;47.23
30302;BME280;17111;52.130;5.028;2023-05-22T02:14:51;101602.63;;;21.50;47.65
30302;BME280;17111;52.130;5.028;2023-05-22T02:17:17;101595.53;;;21.49;47.82
30302;BME280;17111;52.130;5.028;2023-05-22T02:19:44;101597.38;;;21.48;47.43
30302;BME280;17111;52.130;5.028;2023-05-22T02:22:11;101597.38;;;21.48;47.77
30302;BME280;17111;52.130;5.028;2023-05-22T02:24:42;101589.44;;;21.47;47.95
30302;BME280;17111;52.130;5.028;2023-05-22T02:27:09;101594.00;;;21.46;47.64
30302;BME280;17111;52.130;5.028;2023-05-22T02:29:36;101584.22;;;21.45;47.66
30302;BME280;17111;52.130;5.028;2023-05-22T02:32:03;101589.59;;;21.45;47.97
30302;BME280;17111;52.130;5.028;2023-05-22T02:34:30;101583.38;;;21.44;48.22
30302;BME280;17111;52.130;5.028;2023-05-22T02:37:00;101584.38;;;21.43;47.59
30302;BME280;17111;52.130;5.028;2023-05-22T02:39:29;101584.53;;;21.42;47.64
30302;BME280;17111;52.130;5.028;2023-05-22T02:41:56;101589.91;;;21.42;47.76
30302;BME280;17111;52.130;5.028;2023-05-22T02:44:22;101593.44;;;21.42;47.85
30302;BME280;17111;52.130;5.028;2023-05-22T02:46:49;101590.94;;;21.41;47.97
30302;BME280;17111;52.130;5.028;2023-05-22T02:49:16;101592.78;;;21.40;47.45
30302;BME280;17111;52.130;5.028;2023-05-22T02:51:42;101582.00;;;21.40;47.69
30302;BME280;17111;52.130;5.028;2023-05-22T02:54:13;101583.00;;;21.39;47.76
30302;BME280;17111;52.130;5.028;2023-05-22T02:56:44;101576.78;;;21.39;47.99
30302;BME280;17111;52.130;5.028;2023-05-22T02:59:10;101581.28;;;21.38;47.77
30302;BME280;17111;52.130;5.028;2023-05-22T03:01:37;101569.66;;;21.38;47.81
30302;BME280;17111;52.130;5.028;2023-05-22T03:04:05;101578.75;;;21.37;47.36
30302;BME280;17111;52.130;5.028;2023-05-22T03:06:34;101569.00;;;21.36;47.46
30302;BME280;17111;52.130;5.028;2023-05-22T03:09:02;101569.00;;;21.36;47.96
30302;BME280;17111;52.130;5.028;2023-05-22T03:11:30;101572.69;;;21.35;47.67
30302;BME280;17111;52.130;5.028;2023-05-22T03:13:57;101567.31;;;21.35;48.09
30302;BME280;17111;52.130;5.028;2023-05-22T03:16:24;101565.59;;;21.34;47.72
30302;BME280;17111;52.130;5.028;2023-05-22T03:19:08;101564.03;;;21.31;47.93
30302;BME280;17111;52.130;5.028;2023-05-22T03:21:35;101568.28;;;21.34;47.66
30302;BME280;17111;52.130;5.028;2023-05-22T03:24:02;101568.44;;;21.32;48.10
30302;BME280;17111;52.130;5.028;2023-05-22T03:26:29;101564.88;;;21.32;47.55
30302;BME280;17111;52.130;5.028;2023-05-22T03:28:56;101567.56;;;21.32;48.05
30302;BME280;17111;52.130;5.028;2023-05-22T03:31:23;101564.88;;;21.32;47.82
30302;BME280;17111;52.130;5.028;2023-05-22T03:33:51;101566.88;;;21.30;47.84
30302;BME280;17111;52.130;5.028;2023-05-22T03:36:19;101565.91;;;21.31;47.70
30302;BME280;17111;52.130;5.028;2023-05-22T03:38:46;101572.25;;;21.30;48.09
30302;BME280;17111;52.130;5.028;2023-05-22T03:41:13;101564.19;;;21.30;48.07
30302;BME280;17111;52.130;5.028;2023-05-22T03:43:39;101560.63;;;21.29;48.10
30302;BME280;17111;52.130;5.028;2023-05-22T03:46:10;101562.50;;;21.29;48.17
30302;BME280;17111;52.130;5.028;2023-05-22T03:48:37;101567.88;;;21.29;47.81
30302;BME280;17111;52.130;5.028;2023-05-22T03:51:04;101565.19;;;21.29;47.75
30302;BME280;17111;52.130;5.028;2023-05-22T03:53:31;101566.19;;;21.28;48.13
30302;BME280;17111;52.130;5.028;2023-05-22T03:55:58;101568.06;;;21.27;47.52
30302;BME280;17111;52.130;5.028;2023-05-22T03:58:24;101572.59;;;21.27;48.21
30302;BME280;17111;52.130;5.028;2023-05-22T04:00:54;101570.88;;;21.26;48.35
30302;BME280;17111;52.130;5.028;2023-05-22T04:03:23;101567.34;;;21.25;47.86
30302;BME280;17111;52.130;5.028;2023-05-22T04:05:50;101558.25;;;21.26;48.13
30302;BME280;17111;52.130;5.028;2023-05-22T04:08:17;101564.66;;;21.25;47.81
30302;BME280;17111;52.130;5.028;2023-05-22T04:10:44;101562.97;;;21.24;47.51
30302;BME280;17111;52.130;5.028;2023-05-22T04:13:12;101570.22;;;21.24;47.81
30302;BME280;17111;52.130;5.028;2023-05-22T04:15:39;101575.59;;;21.24;47.97
30302;BME280;17111;52.130;5.028;2023-05-22T04:18:07;101571.91;;;21.25;48.00
30302;BME280;17111;52.130;5.028;2023-05-22T04:20:34;101565.97;;;21.21;47.80
30302;BME280;17111;52.130;5.028;2023-05-22T04:23:01;101571.38;;;21.21;48.24
30302;BME280;17111;52.130;5.028;2023-05-22T04:25:27;101582.16;;;21.21;48.16
30302;BME280;17111;52.130;5.028;2023-05-22T04:27:55;101589.41;;;21.20;47.94
30302;BME280;17111;52.130;5.028;2023-05-22T04:30:22;101589.41;;;21.20;47.91
30302;BME280;17111;52.130;5.028;2023-05-22T04:32:50;101590.25;;;21.21;47.57
30302;BME280;17111;52.130;5.028;2023-05-22T04:35:17;101597.31;;;21.22;47.77
30302;BME280;17111;52.130;5.028;2023-05-22T04:37:44;101590.25;;;21.21;47.96
30302;BME280;17111;52.130;5.028;2023-05-22T04:40:11;101598.16;;;21.23;48.00
30302;BME280;17111;52.130;5.028;2023-05-22T04:42:40;101606.13;;;21.24;47.91
30302;BME280;17111;52.130;5.028;2023-05-22T04:45:08;101607.78;;;21.25;47.74
30302;BME280;17111;52.130;5.028;2023-05-22T04:47:35;101619.28;;;21.27;47.86
30302;BME280;17111;52.130;5.028;2023-05-22T04:50:03;101620.13;;;21.28;48.17
30302;BME280;17111;52.130;5.028;2023-05-22T04:52:30;101629.06;;;21.28;48.17
30302;BME280;17111;52.130;5.028;2023-05-22T04:54:57;101619.13;;;21.29;47.83
30302;BME280;17111;52.130;5.028;2023-05-22T04:57:26;101619.13;;;21.29;47.86
30302;BME280;17111;52.130;5.028;2023-05-22T04:59:53;101622.53;;;21.31;47.76
30302;BME280;17111;52.130;5.028;2023-05-22T05:02:19;101621.50;;;21.32;47.93
30302;BME280;17111;52.130;5.028;2023-05-22T05:04:46;101620.53;;;21.33;47.76
30302;BME280;17111;52.130;5.028;2023-05-22T05:07:13;101619.53;;;21.34;47.71
30302;BME280;17111;52.130;5.028;2023-05-22T05:09:43;101623.94;;;21.35;47.99
30302;BME280;17111;52.130;5.028;2023-05-22T05:12:09;101635.41;;;21.37;47.94
30302;BME280;17111;52.130;5.028;2023-05-22T05:14:36;101620.91;;;21.38;47.82
30302;BME280;17111;52.130;5.028;2023-05-22T05:17:02;101624.31;;;21.40;47.71
30302;BME280;17111;52.130;5.028;2023-05-22T05:19:30;101621.59;;;21.40;47.51
30302;BME280;17111;52.130;5.028;2023-05-22T05:21:57;101626.69;;;21.43;47.52
30302;BME280;17111;52.130;5.028;2023-05-22T05:24:24;101623.81;;;21.44;47.51
30302;BME280;17111;52.130;5.028;2023-05-22T05:26:50;101615.56;;;21.46;47.85
30302;BME280;17111;52.130;5.028;2023-05-22T05:29:17;101616.28;;;21.48;47.85
30302;BME280;17111;52.130;5.028;2023-05-22T05:31:44;101620.66;;;21.49;47.76
30302;BME280;17111;52.130;5.028;2023-05-22T05:34:11;101621.34;;;21.51;47.48
30302;BME280;17111;52.130;5.028;2023-05-22T05:36:39;101612.25;;;21.52;47.53
30302;BME280;17111;52.130;5.028;2023-05-22T05:41:32;101621.72;;;21.56;47.68
30302;BME280;17111;52.130;5.028;2023-05-22T05:43:59;101614.47;;;21.57;47.54
30302;BME280;17111;52.130;5.028;2023-05-22T05:46:26;101611.59;;;21.58;47.61
30302;BME280;17111;52.130;5.028;2023-05-22T05:48:53;101625.78;;;21.60;47.39
30302;BME280;17111;52.130;5.028;2023-05-22T05:51:20;101623.78;;;21.62;47.27
30302;BME280;17111;52.130;5.028;2023-05-22T05:53:47;101618.38;;;21.62;47.42
30302;BME280;17111;52.130;5.028;2023-05-22T05:56:14;101618.22;;;21.64;47.27
30302;BME280;17111;52.130;5.028;2023-05-22T05:58:41;101618.06;;;21.65;47.23
30302;BME280;17111;52.130;5.028;2023-05-22T06:01:07;101617.94;;;21.67;47.30
30302;BME280;17111;52.130;5.028;2023-05-22T06:03:34;101620.44;;;21.68;47.61
30302;BME280;17111;52.130;5.028;2023-05-22T06:06:01;101617.59;;;21.70;47.46
30302;BME280;17111;52.130;5.028;2023-05-22T06:08:28;101620.16;;;21.72;47.02
30302;BME280;17111;52.130;5.028;2023-05-22T06:10:57;101616.44;;;21.73;47.39
30302;BME280;17111;52.130;5.028;2023-05-22T06:13:24;101617.28;;;21.73;47.25
30302;BME280;17111;52.130;5.028;2023-05-22T06:15:50;101626.91;;;21.76;46.79
30302;BME280;17111;52.130;5.028;2023-05-22T06:18:17;101623.19;;;21.77;47.09
30302;BME280;17111;52.130;5.028;2023-05-22T06:20:44;101614.09;;;21.78;47.04
30302;BME280;17111;52.130;5.028;2023-05-22T06:23:11;101623.88;;;21.79;46.96
30302;BME280;17111;52.130;5.028;2023-05-22T06:25:37;101617.31;;;21.81;46.55
30302;BME280;17111;52.130;5.028;2023-05-22T06:28:05;101620.03;;;21.81;46.88
30302;BME280;17111;52.130;5.028;2023-05-22T06:30:32;101618.16;;;21.82;47.12
30302;BME280;17111;52.130;5.028;2023-05-22T06:33:05;101617.16;;;21.83;46.88
30302;BME280;17111;52.130;5.028;2023-05-22T06:35:33;101620.56;;;21.85;47.29
30302;BME280;17111;52.130;5.028;2023-05-22T06:37:59;101629.50;;;21.85;46.65
30302;BME280;17111;52.130;5.028;2023-05-22T06:40:26;101631.88;;;21.88;46.71
30302;BME280;17111;52.130;5.028;2023-05-22T06:42:53;101635.41;;;21.89;46.78
30302;BME280;17111;52.130;5.028;2023-05-22T06:45:19;101632.72;;;21.89;46.82
30302;BME280;17111;52.130;5.028;2023-05-22T06:47:51;101635.25;;;21.90;46.88
30302;BME280;17111;52.130;5.028;2023-05-22T06:50:19;101636.97;;;21.91;47.06
30302;BME280;17111;52.130;5.028;2023-05-22T06:52:46;101643.34;;;21.90;46.88
30302;BME280;17111;52.130;5.028;2023-05-22T06:55:13;101637.94;;;21.90;46.97
30302;BME280;17111;52.130;5.028;2023-05-22T06:57:40;101635.09;;;21.92;47.00
30302;BME280;17111;52.130;5.028;2023-05-22T07:00:07;101641.34;;;21.92;46.75
30302;BME280;17111;52.130;5.028;2023-05-22T07:02:35;101643.88;;;21.94;46.60
30302;BME280;17111;52.130;5.028;2023-05-22T07:05:01;101644.72;;;21.94;46.76
30302;BME280;17111;52.130;5.028;2023-05-22T07:07:28;101646.56;;;21.94;46.68
30302;BME280;17111;52.130;5.028;2023-05-22T07:09:54;101638.47;;;21.94;46.71
30302;BME280;17111;52.130;5.028;2023-05-22T07:12:21;101645.59;;;21.95;46.70
30302;BME280;17111;52.130;5.028;2023-05-22T07:14:51;101652.66;;;21.96;46.80
30302;BME280;17111;52.130;5.028;2023-05-22T07:17:18;101650.81;;;21.97;46.82
30302;BME280;17111;52.130;5.028;2023-05-22T07:19:47;101647.09;;;21.98;46.60
30302;BME280;17111;52.130;5.028;2023-05-22T07:22:14;101659.75;;;21.97;47.41
30302;BME280;17111;52.130;5.028;2023-05-22T07:24:41;101656.03;;;21.98;46.43
30302;BME280;17111;52.130;5.028;2023-05-22T07:27:07;101658.75;;;21.98;47.06
30302;BME280;17111;52.130;5.028;2023-05-22T07:29:34;101655.06;;;21.99;46.80
30302;BME280;17111;52.130;5.028;2023-05-22T07:32:01;101660.28;;;22.01;47.03
30302;BME280;17111;52.130;5.028;2023-05-22T07:34:28;101663.00;;;22.01;46.92
30302;BME280;17111;52.130;5.028;2023-05-22T07:37:00;101655.72;;;22.01;46.96
30302;BME280;17111;52.130;5.028;2023-05-22T07:39:26;101653.03;;;22.01;47.02
30302;BME280;17111;52.130;5.028;2023-05-22T07:41:53;101652.00;;;22.02;47.11
30302;BME280;17111;52.130;5.028;2023-05-22T07:44:22;101654.72;;;22.02;46.95
30302;BME280;17111;52.130;5.028;2023-05-22T07:46:48;101648.34;;;22.03;46.77
30302;BME280;17111;52.130;5.028;2023-05-22T07:49:15;101658.13;;;22.04;46.70
30302;BME280;17111;52.130;5.028;2023-05-22T07:51:45;101658.13;;;22.04;46.65
30302;BME280;17111;52.130;5.028;2023-05-22T07:54:12;101662.50;;;22.05;46.65
30302;BME280;17111;52.130;5.028;2023-05-22T07:56:40;101657.09;;;22.05;47.11
30302;BME280;17111;52.130;5.028;2023-05-22T07:59:07;101661.50;;;22.06;46.80
30302;BME280;17111;52.130;5.028;2023-05-22T08:01:39;101656.94;;;22.07;46.94
30302;BME280;17111;52.130;5.028;2023-05-22T08:04:07;101657.81;;;22.07;46.90
30302;BME280;17111;52.130;5.028;2023-05-22T08:06:34;101657.81;;;22.07;46.93
30302;BME280;17111;52.130;5.028;2023-05-22T08:09:01;101662.19;;;22.08;46.84
30302;BME280;17111;52.130;5.028;2023-05-22T08:11:28;101655.78;;;22.09;46.88
30302;BME280;17111;52.130;5.028;2023-05-22T08:13:54;101661.19;;;22.09;46.70
30302;BME280;17111;52.130;5.028;2023-05-22T08:16:21;101668.25;;;22.10;46.42
30302;BME280;17111;52.130;5.028;2023-05-22T08:18:48;101660.16;;;22.10;46.81
30302;BME280;17111;52.130;5.028;2023-05-22T08:21:15;101664.56;;;22.11;46.93
30302;BME280;17111;52.130;5.028;2023-05-22T08:23:42;101659.19;;;22.11;46.99
30302;BME280;17111;52.130;5.028;2023-05-22T08:26:09;101667.13;;;22.13;46.79
30302;BME280;17111;52.130;5.028;2023-05-22T08:28:35;101664.25;;;22.14;47.02
30302;BME280;17111;52.130;5.028;2023-05-22T08:31:02;101659.88;;;22.13;46.93
30302;BME280;17111;52.130;5.028;2023-05-22T08:33:29;101666.81;;;22.16;46.73
30302;BME280;17111;52.130;5.028;2023-05-22T08:35:56;101659.56;;;22.16;47.01
30302;BME280;17111;52.130;5.028;2023-05-22T08:38:22;101658.72;;;22.16;46.87
30302;BME280;17111;52.130;5.028;2023-05-22T08:40:49;101655.00;;;22.17;47.04
30302;BME280;17111;52.130;5.028;2023-05-22T08:43:19;101653.16;;;22.17;46.98
30302;BME280;17111;52.130;5.028;2023-05-22T08:45:54;101655.66;;;22.19;46.95
30302;BME280;17111;52.130;5.028;2023-05-22T08:48:23;101654.84;;;22.18;47.06
30302;BME280;17111;52.130;5.028;2023-05-22T08:50:52;101647.44;;;22.21;46.99
30302;BME280;17111;52.130;5.028;2023-05-22T08:53:27;101652.66;;;22.22;46.78
30302;BME280;17111;52.130;5.028;2023-05-22T08:55:54;101646.41;;;22.22;46.98
30302;BME280;17111;52.130;5.028;2023-05-22T08:58:22;101641.72;;;22.24;47.07
30302;BME280;17111;52.130;5.028;2023-05-22T09:00:49;101643.56;;;22.23;46.81
30302;BME280;17111;52.130;5.028;2023-05-22T09:03:16;101641.53;;;22.25;47.09
30302;BME280;17111;52.130;5.028;2023-05-22T09:05:43;101639.53;;;22.27;47.01
30302;BME280;17111;52.130;5.028;2023-05-22T09:08:10;101635.81;;;22.28;46.77
30302;BME280;17111;52.130;5.028;2023-05-22T09:10:46;101641.03;;;22.30;47.03
30302;BME280;17111;52.130;5.028;2023-05-22T09:13:23;101634.63;;;22.31;46.84
30302;BME280;17111;52.130;5.028;2023-05-22T09:15:49;101645.13;;;22.34;47.04
30302;BME280;17111;52.130;5.028;2023-05-22T09:18:16;101635.31;;;22.33;46.99
30302;BME280;17111;52.130;5.028;2023-05-22T09:20:43;101633.16;;;22.36;47.06
30302;BME280;17111;52.130;5.028;2023-05-22T09:23:13;101635.69;;;22.38;46.84
30302;BME280;17111;52.130;5.028;2023-05-22T09:25:43;101628.09;;;22.41;46.98
30302;BME280;17111;52.130;5.028;2023-05-22T09:28:10;101641.44;;;22.43;46.85
30302;BME280;17111;52.130;5.028;2023-05-22T09:30:38;101638.41;;;22.46;47.10
30302;BME280;17111;52.130;5.028;2023-05-22T09:33:06;101628.13;;;22.50;46.93
30302;BME280;17111;52.130;5.028;2023-05-22T09:35:35;101627.63;;;22.54;46.69
30302;BME280;17111;52.130;5.028;2023-05-22T09:38:04;101627.13;;;22.59;46.88
30302;BME280;17111;52.130;5.028;2023-05-22T09:40:32;101628.50;;;22.63;46.70
30302;BME280;17111;52.130;5.028;2023-05-22T09:43:01;101629.00;;;22.66;46.60
30302;BME280;17111;52.130;5.028;2023-05-22T09:45:33;101629.38;;;22.72;47.04
30302;BME280;17111;52.130;5.028;2023-05-22T09:48:02;101628.03;;;22.76;47.04
30302;BME280;17111;52.130;5.028;2023-05-22T09:50:29;101622.28;;;22.79;46.98
30302;BME280;17111;52.130;5.028;2023-05-22T09:52:59;101629.03;;;22.83;46.65
30302;BME280;17111;52.130;5.028;2023-05-22T09:55:26;101630.41;;;22.87;47.01
30302;BME280;17111;52.130;5.028;2023-05-22T09:57:54;101638.19;;;22.90;46.71
30302;BME280;17111;52.130;5.028;2023-05-22T10:00:23;101638.72;;;22.94;46.85
30302;BME280;17111;52.130;5.028;2023-05-22T10:03:07;101624.88;;;22.97;46.49
30302;BME280;17111;52.130;5.028;2023-05-22T10:05:36;101619.81;;;23.02;46.84
30302;BME280;17111;52.130;5.028;2023-05-22T10:08:12;101617.63;;;23.05;47.11
30302;BME280;17111;52.130;5.028;2023-05-22T10:10:41;101622.69;;;23.08;46.33
30302;BME280;17111;52.130;5.028;2023-05-22T10:13:09;101627.75;;;23.11;46.76
30302;BME280;17111;52.130;5.028;2023-05-22T10:15:36;101624.72;;;23.14;46.95
30302;BME280;17111;52.130;5.028;2023-05-22T10:18:04;101623.69;;;23.15;46.53
30302;BME280;17111;52.130;5.028;2023-05-22T10:20:31;101622.72;;;23.17;46.60
30302;BME280;17111;52.130;5.028;2023-05-22T10:22:58;101629.09;;;23.15;46.65
30302;BME280;17111;52.130;5.028;2023-05-22T10:25:28;101626.41;;;23.15;46.72
30302;BME280;17111;52.130;5.028;2023-05-22T10:27:56;101627.28;;;23.16;46.66
30302;BME280;17111;52.130;5.028;2023-05-22T10:41:15;101623.03;;;23.30;46.34
30302;BME280;17111;52.130;5.028;2023-05-22T10:43:42;101610.19;;;23.32;46.65
30302;BME280;17111;52.130;5.028;2023-05-22T10:46:11;101616.25;;;23.34;46.17
30302;BME280;17111;52.130;5.028;2023-05-22T10:48:42;101615.25;;;23.35;46.29
30302;BME280;17111;52.130;5.028;2023-05-22T10:51:17;101617.63;;;23.38;46.48
30302;BME280;17111;52.130;5.028;2023-05-22T10:53:50;101604.78;;;23.40;46.70
30302;BME280;17111;52.130;5.028;2023-05-22T10:56:18;101607.13;;;23.43;46.21
30302;BME280;17111;52.130;5.028;2023-05-22T10:58:59;101610.66;;;23.44;46.18
30302;BME280;17111;52.130;5.028;2023-05-22T11:01:34;101606.59;;;23.48;46.50
30302;BME280;17111;52.130;5.028;2023-05-22T11:06:39;101609.66;;;23.53;46.64
30302;BME280;17111;52.130;5.028;2023-05-22T11:11:45;101608.31;;;23.57;46.49
30302;BME280;17111;52.130;5.028;2023-05-22T11:14:15;101603.91;;;23.56;45.83
30302;BME280;17111;52.130;5.028;2023-05-22T11:16:43;101597.47;;;23.57;46.01
30302;BME280;17111;52.130;5.028;2023-05-22T11:19:09;101597.47;;;23.57;46.06
30302;BME280;17111;52.130;5.028;2023-05-22T11:21:49;101600.84;;;23.59;45.88
30302;BME280;17111;52.130;5.028;2023-05-22T11:24:16;101592.72;;;23.59;46.19
30302;BME280;17111;52.130;5.028;2023-05-22T11:27:00;101598.97;;;23.59;46.23
30302;BME280;17111;52.130;5.028;2023-05-22T11:29:28;101597.78;;;23.62;46.44
30302;BME280;17111;52.130;5.028;2023-05-22T11:31:56;101595.94;;;23.62;46.30
30302;BME280;17111;52.130;5.028;2023-05-22T11:34:24;101596.63;;;23.64;46.08
30302;BME280;17111;52.130;5.028;2023-05-22T11:37:00;101584.63;;;23.67;46.44
30302;BME280;17111;52.130;5.028;2023-05-22T11:39:27;101578.88;;;23.70;45.97
30302;BME280;17111;52.130;5.028;2023-05-22T11:41:53;101584.97;;;23.72;46.16
30302;BME280;17111;52.130;5.028;2023-05-22T11:44:20;101583.75;;;23.75;46.34
30302;BME280;17111;52.130;5.028;2023-05-22T11:46:47;101580.88;;;23.76;45.73
30302;BME280;17111;52.130;5.028;2023-05-22T11:49:14;101585.09;;;23.79;46.35
30302;BME280;17111;52.130;5.028;2023-05-22T11:51:40;101594.75;;;23.81;46.39
30302;BME280;17111;52.130;5.028;2023-05-22T11:54:07;101589.81;;;23.85;46.16
30302;BME280;17111;52.130;5.028;2023-05-22T11:56:34;101591.50;;;23.86;45.69
30302;BME280;17111;52.130;5.028;2023-05-22T11:59:00;101587.63;;;23.88;46.01
30302;BME280;17111;52.130;5.028;2023-05-22T12:01:27;101590.97;;;23.91;46.08
30302;BME280;17111;52.130;5.028;2023-05-22T12:03:54;101596.25;;;23.92;46.23
30302;BME280;17111;52.130;5.028;2023-05-22T12:06:21;101601.28;;;23.95;45.81
30302;BME280;17111;52.130;5.028;2023-05-22T12:08:47;101603.00;;;23.96;45.97
30302;BME280;17111;52.130;5.028;2023-05-22T12:11:15;101593.84;;;23.97;45.82
30302;BME280;17111;52.130;5.028;2023-05-22T12:13:42;101596.38;;;23.99;45.54
30302;BME280;17111;52.130;5.028;2023-05-22T12:16:19;101604.34;;;24.00;45.86
30302;BME280;17111;52.130;5.028;2023-05-22T12:18:51;101603.31;;;24.01;46.08
30302;BME280;17111;52.130;5.028;2023-05-22T12:21:19;101601.25;;;24.03;45.67
30302;BME280;17111;52.130;5.028;2023-05-22T12:23:47;101601.25;;;24.03;45.91
30302;BME280;17111;52.130;5.028;2023-05-22T12:26:15;101608.38;;;24.04;45.68
30302;BME280;17111;52.130;5.028;2023-05-22T12:28:43;101615.28;;;24.07;45.59
30302;BME280;17111;52.130;5.028;2023-05-22T12:31:10;101604.66;;;24.05;45.79
30302;BME280;17111;52.130;5.028;2023-05-22T12:33:38;101614.44;;;24.06;45.61
30302;BME280;17111;52.130;5.028;2023-05-22T12:36:08;101609.03;;;24.06;45.92
30302;BME280;17111;52.130;5.028;2023-05-22T12:38:36;101604.47;;;24.07;45.57
30302;BME280;17111;52.130;5.028;2023-05-22T12:41:04;101604.31;;;24.08;45.54
30302;BME280;17111;52.130;5.028;2023-05-22T12:43:31;101600.91;;;24.06;45.69
30302;BME280;17111;52.130;5.028;2023-05-22T12:45:58;101604.47;;;24.07;46.07
30302;BME280;17111;52.130;5.028;2023-05-22T12:48:27;101606.13;;;24.08;46.07
30302;BME280;17111;52.130;5.028;2023-05-22T12:50:54;101606.13;;;24.08;45.61
30302;BME280;17111;52.130;5.028;2023-05-22T12:53:21;101606.13;;;24.08;45.65
30302;BME280;17111;52.130;5.028;2023-05-22T12:55:47;101613.59;;;24.06;45.55
30302;BME280;17111;52.130;5.028;2023-05-22T12:58:14;101621.53;;;24.07;45.71
30302;BME280;17111;52.130;5.028;2023-05-22T13:00:40;101616.31;;;24.06;45.51
30302;BME280;17111;52.130;5.028;2023-05-22T13:03:07;101615.47;;;24.05;45.62
30302;BME280;17111;52.130;5.028;2023-05-22T13:05:34;101616.50;;;24.04;45.83
30302;BME280;17111;52.130;5.028;2023-05-22T13:08:01;101614.78;;;24.03;45.55
30302;BME280;17111;52.130;5.028;2023-05-22T13:10:27;101608.53;;;24.03;45.71
30302;BME280;17111;52.130;5.028;2023-05-22T13:12:54;101615.81;;;24.02;45.58
30302;BME280;17111;52.130;5.028;2023-05-22T13:15:21;101621.25;;;24.02;45.78
30302;BME280;17111;52.130;5.028;2023-05-22T13:17:48;101614.78;;;24.03;45.88
30302;BME280;17111;52.130;5.028;2023-05-22T13:20:14;101623.75;;;24.04;45.91
30302;BME280;17111;52.130;5.028;2023-05-22T13:22:41;101607.69;;;24.02;46.15
30302;BME280;17111;52.130;5.028;2023-05-22T13:25:08;101614.78;;;24.03;46.09
30302;BME280;17111;52.130;5.028;2023-05-22T13:27:34;101609.38;;;24.03;45.71